Ironia, New Jersey
Current Conditions -  °F | °C
As of 8:45 AM on Thursday 23 Oct 2014 (Local Time) from KMMU Reporting Station
Light Rain Light Rain  
Wind Chill: 52°   Ceiling: 1400
Heat Index: 52°   Visibility: 3mi
Dew Point: 50°   Wind: 6mph
Humidity: 94%   Direction: 30°NNE
Pressure: 29.74"   Gusts: NA
Location:  40.82°N, 74.63°W
Report Text: KMMU 231245Z 03005KT 3SM -RA BR OVC014 11/10 A2974
Loading
Personal Weather Stations






























Interactive Weather Map
Tropical Storm Tracking
New forecast layout! Learn more

10-Day Weather Forecast

Advertisements
Track Severe Weather on mobile